createdAt,value
2022-08-18T00:01:48.675Z,79.50
2022-08-18T00:04:35.555Z,79.20
2022-08-18T00:07:03.376Z,79.20
2022-08-18T00:09:32.509Z,79.80
2022-08-18T00:12:03.081Z,79.50
2022-08-18T00:14:30.156Z,79.10
2022-08-18T00:16:56.895Z,78.80
2022-08-18T00:19:45.616Z,78.60
2022-08-18T00:22:16.013Z,78.30
2022-08-18T00:24:47.621Z,78.00
2022-08-18T00:27:14.843Z,77.90
2022-08-18T00:29:41.810Z,77.90
2022-08-18T00:32:17.626Z,77.70
2022-08-18T00:34:44.536Z,77.50
2022-08-18T00:37:11.642Z,77.40
2022-08-18T00:39:40.606Z,77.30
2022-08-18T00:42:27.681Z,77.30
2022-08-18T00:45:02.344Z,77.30
2022-08-18T00:47:41.483Z,77.40
2022-08-18T00:50:20.763Z,77.60
2022-08-18T00:52:56.803Z,78.40
2022-08-18T00:55:25.166Z,79.50
2022-08-18T00:58:00.422Z,79.80
2022-08-18T01:00:27.192Z,79.50
2022-08-18T01:02:58.151Z,79.80
2022-08-18T01:05:33.818Z,80.10
2022-08-18T01:08:01.081Z,80.60
2022-08-18T01:10:27.857Z,81.20
2022-08-18T01:12:57.937Z,81.30
2022-08-18T01:15:30.170Z,81.00
2022-08-18T01:18:22.485Z,81.20
2022-08-18T01:21:22.237Z,80.70
2022-08-18T01:23:51.520Z,81.00
2022-08-18T01:26:19.940Z,81.00
2022-08-18T01:28:49.378Z,81.90
2022-08-18T01:31:30.714Z,81.80
2022-08-18T01:33:57.467Z,81.60
2022-08-18T01:36:24.251Z,81.70
2022-08-18T01:38:53.168Z,81.50
2022-08-18T01:41:29.537Z,81.80
2022-08-18T01:43:59.055Z,82.00
2022-08-18T01:46:31.646Z,82.40
2022-08-18T01:49:00.614Z,82.40
2022-08-18T01:51:39.664Z,82.90
2022-08-18T01:54:12.221Z,83.00
2022-08-18T01:56:40.786Z,83.30
2022-08-18T01:59:10.383Z,83.20
2022-08-18T02:01:48.122Z,83.50
2022-08-18T02:04:34.357Z,83.60
2022-08-18T02:07:06.029Z,83.10
2022-08-18T02:09:33.633Z,82.40
2022-08-18T02:12:01.417Z,83.20
2022-08-18T02:14:31.275Z,83.20
2022-08-18T02:17:01.897Z,83.20
2022-08-18T02:19:36.802Z,82.80
2022-08-18T02:22:04.690Z,83.30
2022-08-18T02:24:31.392Z,82.40
2022-08-18T02:26:59.623Z,83.20
2022-08-18T02:29:26.549Z,84.10
2022-08-18T02:31:53.464Z,84.30
2022-08-18T02:34:20.202Z,84.90
2022-08-18T02:36:46.908Z,84.20
2022-08-18T02:39:14.555Z,83.30
2022-08-18T02:41:42.043Z,82.70
2022-08-18T02:44:09.190Z,82.40
2022-08-18T02:46:36.856Z,82.90
2022-08-18T02:49:05.222Z,83.80
2022-08-18T02:51:31.952Z,84.40
2022-08-18T02:53:59.284Z,84.80
2022-08-18T02:56:40.478Z,84.50
2022-08-18T02:59:12.343Z,84.60
2022-08-18T03:01:41.830Z,85.50
2022-08-18T03:04:11.094Z,85.80
2022-08-18T03:06:39.270Z,86.10
2022-08-18T03:09:08.668Z,85.30
2022-08-18T03:11:36.410Z,85.00
2022-08-18T03:14:05.283Z,84.60
2022-08-18T03:16:33.033Z,84.70
2022-08-18T03:19:03.486Z,85.10
2022-08-18T03:21:34.865Z,85.30
2022-08-18T03:24:02.963Z,85.80
2022-08-18T03:26:39.392Z,86.10
2022-08-18T03:29:06.233Z,86.00
2022-08-18T03:31:34.659Z,86.30
2022-08-18T03:34:01.996Z,86.20
2022-08-18T03:36:34.344Z,85.90
2022-08-18T03:39:10.637Z,86.40
2022-08-18T03:41:59.022Z,86.50
2022-08-18T03:44:30.607Z,86.20
2022-08-18T03:46:58.468Z,86.30
2022-08-18T03:49:25.972Z,86.40
2022-08-18T03:51:52.722Z,86.10
2022-08-18T03:54:19.493Z,86.10
2022-08-18T03:56:47.823Z,86.20
2022-08-18T03:59:19.695Z,86.10
2022-08-18T04:01:48.688Z,86.20
2022-08-18T04:04:19.465Z,86.30
2022-08-18T04:06:57.037Z,86.10
2022-08-18T04:09:25.812Z,85.50
2022-08-18T04:11:52.965Z,85.50
2022-08-18T04:14:24.837Z,85.30
2022-08-18T04:16:52.562Z,85.20
2022-08-18T04:19:26.171Z,85.70
2022-08-18T04:21:54.737Z,86.10
2022-08-18T04:24:21.673Z,86.00
2022-08-18T04:26:49.845Z,86.20
2022-08-18T04:29:19.684Z,85.80
2022-08-18T04:31:47.170Z,86.20
2022-08-18T04:34:14.676Z,86.80
2022-08-18T04:36:42.329Z,86.50
2022-08-18T04:39:11.178Z,86.10
2022-08-18T04:41:39.594Z,85.30
2022-08-18T04:44:09.437Z,85.50
2022-08-18T04:46:49.964Z,85.90
2022-08-18T04:49:18.527Z,85.60
2022-08-18T04:52:33.957Z,85.80
2022-08-18T04:54:54.181Z,85.20
2022-08-18T04:57:22.875Z,85.50
2022-08-18T04:59:52.146Z,85.20
2022-08-18T05:02:21.354Z,85.20
2022-08-18T05:04:48.606Z,85.00
2022-08-18T05:07:19.195Z,85.30
2022-08-18T05:09:46.535Z,85.60
2022-08-18T05:12:15.352Z,85.30
2022-08-18T05:14:46.995Z,84.80
2022-08-18T05:17:15.962Z,84.60
2022-08-18T05:19:44.656Z,84.20
2022-08-18T05:22:17.739Z,85.20
2022-08-18T05:24:45.643Z,85.50
2022-08-18T05:27:13.063Z,85.50
2022-08-18T05:29:41.631Z,85.60
2022-08-18T05:32:33.820Z,86.10
2022-08-18T05:35:05.062Z,86.50
2022-08-18T05:37:50.613Z,86.70
2022-08-18T05:40:20.283Z,86.70
2022-08-18T05:42:48.646Z,86.10
2022-08-18T05:45:18.657Z,86.40
2022-08-18T05:47:45.659Z,86.00
2022-08-18T05:50:17.218Z,85.70
2022-08-18T05:52:58.369Z,86.20
2022-08-18T05:55:51.488Z,86.40
2022-08-18T05:58:35.274Z,87.00
2022-08-18T06:01:10.865Z,86.60
2022-08-18T06:03:59.681Z,85.50
2022-08-18T06:06:30.515Z,85.20
2022-08-18T06:09:13.927Z,84.70
2022-08-18T06:11:40.902Z,84.60
2022-08-18T06:14:07.884Z,85.30
2022-08-18T06:17:03.202Z,84.60
2022-08-18T06:20:02.045Z,84.80
2022-08-18T06:23:06.456Z,85.10
2022-08-18T06:26:11.797Z,85.00
2022-08-18T06:28:55.399Z,85.10
2022-08-18T06:31:48.364Z,85.60
2022-08-18T06:34:40.625Z,86.10
2022-08-18T06:37:18.015Z,86.00
2022-08-18T06:39:51.393Z,86.20
2022-08-18T06:42:21.505Z,85.70
2022-08-18T06:44:55.935Z,85.80
2022-08-18T06:47:47.703Z,86.10
2022-08-18T06:50:26.483Z,85.90
2022-08-18T06:52:56.555Z,85.10
2022-08-18T06:55:39.559Z,84.10
2022-08-18T06:58:13.479Z,82.80
2022-08-18T07:00:56.363Z,82.40
2022-08-18T07:03:42.988Z,82.20
2022-08-18T07:06:23.864Z,82.40
2022-08-18T07:08:53.705Z,82.70
2022-08-18T07:11:25.349Z,82.90
2022-08-18T07:14:14.874Z,82.60
2022-08-18T07:16:59.599Z,82.40
2022-08-18T07:19:30.829Z,82.10
2022-08-18T07:22:18.685Z,82.10
2022-08-18T07:24:51.543Z,82.20
2022-08-18T07:27:43.430Z,82.00
2022-08-18T07:30:27.670Z,81.90
2022-08-18T07:33:22.142Z,81.90
2022-08-18T07:35:56.980Z,81.20
2022-08-18T07:38:43.502Z,80.60
2022-08-18T07:41:35.520Z,80.50
2022-08-18T07:44:13.592Z,79.80
2022-08-18T07:46:56.367Z,79.80
2022-08-18T07:49:26.245Z,79.70
2022-08-18T07:52:00.675Z,79.60
2022-08-18T07:55:03.630Z,79.60
2022-08-18T07:57:44.635Z,79.30
2022-08-18T08:00:40.979Z,79.00
2022-08-18T08:03:27.989Z,79.00
2022-08-18T08:06:07.887Z,78.80
2022-08-18T08:08:44.141Z,78.60
2022-08-18T08:11:18.527Z,78.10
2022-08-18T08:13:56.021Z,78.50
2022-08-18T08:16:28.477Z,78.30
2022-08-18T08:19:49.368Z,78.50
2022-08-18T08:22:19.436Z,78.80
2022-08-18T08:25:35.208Z,78.70
2022-08-18T08:28:35.342Z,78.80
2022-08-18T08:31:33.286Z,79.10
2022-08-18T08:34:17.206Z,79.10
2022-08-18T08:36:46.941Z,79.10
2022-08-18T08:39:31.702Z,79.40
2022-08-18T08:42:40.972Z,79.50
2022-08-18T08:45:19.985Z,79.90
2022-08-18T08:48:06.614Z,80.00
2022-08-18T08:50:49.822Z,80.10
2022-08-18T08:53:31.636Z,80.20
2022-08-18T08:56:02.939Z,79.80
2022-08-18T08:58:37.493Z,79.50
2022-08-18T09:01:04.931Z,79.30
2022-08-18T09:03:39.870Z,79.30
2022-08-18T09:06:10.862Z,79.60
2022-08-18T09:08:55.114Z,79.60
2022-08-18T09:11:28.492Z,79.70
2022-08-18T09:14:16.058Z,79.50
2022-08-18T09:16:56.459Z,79.60
2022-08-18T09:19:45.081Z,79.70
2022-08-18T09:22:33.508Z,79.70
2022-08-18T09:25:00.441Z,79.60
2022-08-18T09:28:06.793Z,79.80
2022-08-18T09:30:51.596Z,79.80
2022-08-18T09:33:47.613Z,79.90
2022-08-18T09:36:55.430Z,80.10
2022-08-18T09:39:56.779Z,80.20
2022-08-18T09:42:29.977Z,80.20
2022-08-18T09:45:01.458Z,80.60
2022-08-18T09:47:30.464Z,80.60
2022-08-18T09:50:06.217Z,81.40
2022-08-18T09:52:32.919Z,81.80
2022-08-18T09:55:01.557Z,82.70
2022-08-18T09:57:41.350Z,82.10
2022-08-18T10:00:18.633Z,83.00
2022-08-18T10:02:48.827Z,82.10
2022-08-18T10:05:16.985Z,80.80
2022-08-18T10:07:44.858Z,79.30
2022-08-18T10:11:02.386Z,78.60
2022-08-18T10:13:52.493Z,79.80
2022-08-18T10:20:26.745Z,79.40
2022-08-18T10:22:56.487Z,78.20
2022-08-18T10:25:39.772Z,77.30
2022-08-18T10:28:33.039Z,76.10
2022-08-18T10:33:59.952Z,75.90
2022-08-18T10:36:45.417Z,74.90
2022-08-18T10:39:43.934Z,75.20
2022-08-18T10:42:31.214Z,75.40
2022-08-18T10:45:38.174Z,75.30
2022-08-18T10:48:04.861Z,75.50
2022-08-18T10:50:52.523Z,75.40
2022-08-18T10:56:40.527Z,74.20
2022-08-18T10:59:32.247Z,74.30
2022-08-18T11:03:01.845Z,73.80
2022-08-18T11:05:31.814Z,72.80
2022-08-18T11:08:04.654Z,73.50
2022-08-18T11:11:06.655Z,73.20
2022-08-18T11:14:02.502Z,73.90
2022-08-18T11:16:50.496Z,73.40
2022-08-18T11:19:22.729Z,72.60
2022-08-18T11:21:52.671Z,72.50
2022-08-18T11:24:24.198Z,72.40
2022-08-18T11:26:53.612Z,72.10
2022-08-18T11:29:29.796Z,71.70
2022-08-18T11:32:05.497Z,71.70
2022-08-18T11:34:39.063Z,71.80
2022-08-18T11:37:23.800Z,71.50
2022-08-18T11:39:52.906Z,70.10
2022-08-18T11:42:26.560Z,70.40
2022-08-18T11:45:01.611Z,70.70
2022-08-18T11:47:30.350Z,70.10
2022-08-18T11:50:08.570Z,69.20
2022-08-18T11:52:53.960Z,68.70
2022-08-18T11:55:29.851Z,67.90
2022-08-18T11:57:59.531Z,67.90
2022-08-18T12:00:45.491Z,68.00
2022-08-18T12:03:38.008Z,67.80
2022-08-18T12:06:29.912Z,67.70
2022-08-18T12:09:02.299Z,68.70
2022-08-18T12:11:35.594Z,69.30
2022-08-18T12:14:30.574Z,69.70
2022-08-18T12:17:03.309Z,70.10
2022-08-18T12:19:34.660Z,69.60
2022-08-18T12:22:03.241Z,69.70
2022-08-18T12:24:39.430Z,69.80
2022-08-18T12:27:13.311Z,69.10
2022-08-18T12:29:48.285Z,69.20
2022-08-18T12:35:09.424Z,68.60
2022-08-18T12:40:25.782Z,68.70
2022-08-18T12:42:55.791Z,68.40
2022-08-18T12:45:23.559Z,68.20
2022-08-18T12:47:52.761Z,68.10
2022-08-18T12:50:20.034Z,67.80
2022-08-18T12:52:58.526Z,66.70
2022-08-18T12:55:31.474Z,66.80
2022-08-18T12:57:58.655Z,67.00
2022-08-18T13:00:27.794Z,66.80
2022-08-18T13:03:12.381Z,66.70
2022-08-18T13:05:39.278Z,66.30
2022-08-18T13:08:14.038Z,66.00
2022-08-18T13:11:00.386Z,66.10
2022-08-18T13:13:42.639Z,65.70
2022-08-18T13:16:10.285Z,65.00
2022-08-18T13:18:56.937Z,65.50
2022-08-18T13:21:24.115Z,65.70
2022-08-18T13:23:50.886Z,65.80
2022-08-18T13:26:26.216Z,65.40
2022-08-18T13:28:58.162Z,64.80
2022-08-18T13:31:26.881Z,64.90
2022-08-18T13:33:56.703Z,64.80
2022-08-18T13:36:44.271Z,64.80
2022-08-18T13:39:24.341Z,64.80
2022-08-18T13:41:53.227Z,65.20
2022-08-18T13:44:22.413Z,65.70
2022-08-18T13:46:56.027Z,65.30
2022-08-18T13:49:30.044Z,65.50
2022-08-18T13:52:01.031Z,65.10
2022-08-18T13:54:35.971Z,65.00
2022-08-18T13:57:07.767Z,65.00
2022-08-18T13:59:34.740Z,65.60
2022-08-18T14:02:05.897Z,66.50
2022-08-18T14:04:37.830Z,66.80
2022-08-18T14:07:10.954Z,66.90
2022-08-18T14:09:39.276Z,65.90
2022-08-18T14:12:22.609Z,66.30
2022-08-18T14:14:53.967Z,65.90
2022-08-18T14:17:23.607Z,66.40
2022-08-18T14:20:14.804Z,66.00
2022-08-18T14:23:00.467Z,65.00
2022-08-18T14:25:46.147Z,64.80
2022-08-18T14:28:13.324Z,64.80
2022-08-18T14:30:54.101Z,64.60
2022-08-18T14:33:34.489Z,64.80
2022-08-18T14:36:12.411Z,65.30
2022-08-18T14:38:40.231Z,65.30
2022-08-18T14:41:10.399Z,65.60
2022-08-18T14:43:51.776Z,65.60
2022-08-18T14:46:30.128Z,66.00
2022-08-18T14:48:59.552Z,65.70
2022-08-18T14:51:27.056Z,65.60
2022-08-18T14:53:54.544Z,65.50
2022-08-18T14:56:23.428Z,64.90
2022-08-18T14:58:55.786Z,64.30
2022-08-18T15:01:23.239Z,64.70
2022-08-18T15:03:50.053Z,65.20
2022-08-18T15:06:27.108Z,65.20
2022-08-18T15:08:57.041Z,65.10
2022-08-18T15:11:24.879Z,65.10
2022-08-18T15:13:55.409Z,65.40
2022-08-18T15:16:31.543Z,65.50
2022-08-18T15:19:00.308Z,65.60
2022-08-18T15:21:49.877Z,66.10
2022-08-18T15:24:39.745Z,65.90
2022-08-18T15:27:10.472Z,65.50
2022-08-18T15:29:46.338Z,65.70
2022-08-18T15:32:15.246Z,65.70
2022-08-18T15:34:46.653Z,65.90
2022-08-18T15:37:19.397Z,65.80
2022-08-18T15:39:46.837Z,65.40
2022-08-18T15:42:19.103Z,65.80
2022-08-18T15:44:47.248Z,66.00
2022-08-18T15:47:20.822Z,65.90
2022-08-18T15:49:48.437Z,67.40
2022-08-18T15:52:17.480Z,67.80
2022-08-18T15:54:51.015Z,68.00
2022-08-18T15:57:38.789Z,68.20
2022-08-18T16:00:06.127Z,68.70
2022-08-18T16:02:39.796Z,68.60
2022-08-18T16:05:10.396Z,68.60
2022-08-18T16:07:45.052Z,68.60
2022-08-18T16:10:13.653Z,68.90
2022-08-18T16:12:45.634Z,68.80
2022-08-18T16:15:23.387Z,68.80
2022-08-18T16:17:55.341Z,68.50
2022-08-18T16:20:31.924Z,68.30
2022-08-18T16:22:59.159Z,68.40
2022-08-18T16:25:26.311Z,68.50
2022-08-18T16:27:54.784Z,68.60
2022-08-18T16:30:24.252Z,68.70
2022-08-18T16:32:52.064Z,68.40
2022-08-18T16:35:19.922Z,68.20
2022-08-18T16:37:49.093Z,68.20
2022-08-18T16:40:17.854Z,68.90
2022-08-18T16:42:44.771Z,69.20
2022-08-18T16:45:14.747Z,69.20
2022-08-18T16:47:41.675Z,69.10
2022-08-18T16:50:15.634Z,69.00
2022-08-18T16:52:42.399Z,69.00
2022-08-18T16:55:11.596Z,69.20
2022-08-18T16:57:58.776Z,69.30
2022-08-18T17:00:44.821Z,69.40
2022-08-18T17:03:30.771Z,69.40
2022-08-18T17:06:07.105Z,69.40
2022-08-18T17:08:35.429Z,69.60
2022-08-18T17:11:09.464Z,69.40
2022-08-18T17:13:38.900Z,69.00
2022-08-18T17:16:06.913Z,68.80
2022-08-18T17:18:36.005Z,68.70
2022-08-18T17:21:07.058Z,68.80
2022-08-18T17:23:34.419Z,68.50
2022-08-18T17:26:09.618Z,68.50
2022-08-18T17:28:50.670Z,69.00
2022-08-18T17:31:24.366Z,69.20
2022-08-18T17:33:53.242Z,69.20
2022-08-18T17:36:33.549Z,69.30
2022-08-18T17:39:04.122Z,69.50
2022-08-18T17:41:31.002Z,69.10
2022-08-18T17:44:00.817Z,68.80
2022-08-18T17:46:37.499Z,68.80
2022-08-18T17:49:12.623Z,68.40
2022-08-18T17:51:46.266Z,68.40
2022-08-18T17:54:32.268Z,68.30
2022-08-18T17:57:08.879Z,68.90
2022-08-18T17:59:52.342Z,68.80
2022-08-18T18:02:29.580Z,68.50
2022-08-18T18:05:07.193Z,68.30
2022-08-18T18:07:40.453Z,68.20
2022-08-18T18:11:02.291Z,68.20
2022-08-18T18:13:32.336Z,68.40
2022-08-18T18:16:34.807Z,68.40
2022-08-18T18:19:06.414Z,68.20
2022-08-18T18:21:58.881Z,68.20
2022-08-18T18:24:31.043Z,68.30
2022-08-18T18:26:58.298Z,68.40
2022-08-18T18:29:35.667Z,68.80
2022-08-18T18:32:24.739Z,69.10
2022-08-18T18:35:15.860Z,68.80
2022-08-18T18:37:53.692Z,68.70
2022-08-18T18:40:25.816Z,68.50
2022-08-18T18:42:57.387Z,68.60
2022-08-18T18:45:30.988Z,68.50
2022-08-18T18:48:45.104Z,68.60
2022-08-18T18:51:10.922Z,68.60
2022-08-18T18:54:06.150Z,68.50
2022-08-18T18:56:33.280Z,68.60
2022-08-18T18:59:12.703Z,68.70
2022-08-18T19:02:03.850Z,68.70
2022-08-18T19:04:53.098Z,68.50
2022-08-18T19:07:34.527Z,68.80
2022-08-18T19:10:12.393Z,68.60
2022-08-18T19:12:57.861Z,68.70
2022-08-18T19:15:26.929Z,69.00
2022-08-18T19:18:17.498Z,68.90
2022-08-18T19:22:01.648Z,69.00
2022-08-18T19:23:45.199Z,69.10
2022-08-18T19:26:19.470Z,69.60
2022-08-18T19:29:13.547Z,69.60
2022-08-18T19:31:47.436Z,69.60
2022-08-18T19:34:31.498Z,69.60
2022-08-18T19:37:31.238Z,69.60
2022-08-18T19:40:09.303Z,69.70
2022-08-18T19:42:45.199Z,69.90
2022-08-18T19:45:20.741Z,69.90
2022-08-18T19:48:02.797Z,70.00
2022-08-18T19:50:51.456Z,69.90
2022-08-18T19:53:45.835Z,69.90
2022-08-18T19:56:35.784Z,70.00
2022-08-18T19:59:35.188Z,70.00
2022-08-18T20:02:16.554Z,70.10
2022-08-18T20:04:46.024Z,70.10
2022-08-18T20:07:31.396Z,70.20
2022-08-18T20:09:58.265Z,70.40
2022-08-18T20:12:52.898Z,70.30
2022-08-18T20:15:23.655Z,70.50
2022-08-18T20:17:53.647Z,70.60
2022-08-18T20:20:23.675Z,70.90
2022-08-18T20:22:57.021Z,71.10
2022-08-18T20:25:24.159Z,71.10
2022-08-18T20:28:23.496Z,71.30
2022-08-18T20:31:12.375Z,71.10
2022-08-18T20:33:46.764Z,70.80
2022-08-18T20:36:28.302Z,70.90
2022-08-18T20:38:58.651Z,70.90
2022-08-18T20:41:28.541Z,71.00
2022-08-18T20:44:04.353Z,71.10
2022-08-18T20:47:06.282Z,71.60
2022-08-18T20:50:10.509Z,71.70
2022-08-18T20:53:21.726Z,71.90
2022-08-18T20:56:12.810Z,71.90
2022-08-18T20:59:11.549Z,72.00
2022-08-18T21:01:39.054Z,72.40
2022-08-18T21:04:06.183Z,72.70
2022-08-18T21:06:41.886Z,72.90
2022-08-18T21:09:20.657Z,72.80
2022-08-18T21:11:48.093Z,73.00
2022-08-18T21:14:31.777Z,72.80
2022-08-18T21:16:59.314Z,72.80
2022-08-18T21:19:28.871Z,73.10
2022-08-18T21:22:01.120Z,73.30
2022-08-18T21:24:35.338Z,73.40
2022-08-18T21:27:40.406Z,73.40
2022-08-18T21:30:17.212Z,73.40
2022-08-18T21:32:49.819Z,73.30
2022-08-18T21:35:40.680Z,73.20
2022-08-18T21:38:10.096Z,73.30
2022-08-18T21:40:38.980Z,73.60
2022-08-18T21:43:10.944Z,73.70
2022-08-18T21:45:55.620Z,73.90
2022-08-18T21:48:23.146Z,73.80
2022-08-18T21:50:58.374Z,74.00
2022-08-18T21:53:41.797Z,74.10
2022-08-18T21:56:24.504Z,74.10
2022-08-18T21:59:24.363Z,74.10
2022-08-18T22:01:56.714Z,74.10
2022-08-18T22:04:54.277Z,74.00
2022-08-18T22:07:35.087Z,73.80
2022-08-18T22:10:41.877Z,73.70
2022-08-18T22:13:39.817Z,73.60
2022-08-18T22:16:23.649Z,73.60
2022-08-18T22:18:50.436Z,73.80
2022-08-18T22:21:49.717Z,73.80
2022-08-18T22:24:21.326Z,73.90
2022-08-18T22:26:50.635Z,74.40
2022-08-18T22:29:49.528Z,74.60
2022-08-18T22:32:16.852Z,74.50
2022-08-18T22:34:43.687Z,74.40
2022-08-18T22:37:25.445Z,74.40
2022-08-18T22:39:55.751Z,74.40
2022-08-18T22:42:28.585Z,74.80
2022-08-18T22:44:57.990Z,75.00
2022-08-18T22:47:27.475Z,75.20
2022-08-18T22:49:54.193Z,74.90
2022-08-18T22:52:32.942Z,74.70
2022-08-18T22:55:02.770Z,74.50
2022-08-18T22:57:38.055Z,74.40
2022-08-18T23:00:10.745Z,74.20
2022-08-18T23:02:37.782Z,74.30
2022-08-18T23:05:05.323Z,74.60
2022-08-18T23:07:32.503Z,74.90
2022-08-18T23:09:59.248Z,75.40
2022-08-18T23:12:26.104Z,75.50
2022-08-18T23:14:53.362Z,75.50
2022-08-18T23:17:23.325Z,75.20
2022-08-18T23:19:52.261Z,75.10
2022-08-18T23:22:19.324Z,75.10
2022-08-18T23:24:46.077Z,75.00
2022-08-18T23:27:12.960Z,75.20
2022-08-18T23:29:41.105Z,75.20
2022-08-18T23:32:08.048Z,75.40
2022-08-18T23:34:35.738Z,76.00
2022-08-18T23:37:04.664Z,76.10
2022-08-18T23:39:33.319Z,76.10
2022-08-18T23:42:00.925Z,76.10
2022-08-18T23:44:28.242Z,75.60
2022-08-18T23:46:56.650Z,75.70
2022-08-18T23:49:24.603Z,75.40
2022-08-18T23:51:55.251Z,75.30
2022-08-18T23:54:26.982Z,75.00
2022-08-18T23:56:53.743Z,75.20
2022-08-18T23:59:22.302Z,76.00
